Time,TemperatureF,DewpointF,PressureIn,WindDirection,WindDirectionDegrees,WindSpeedMPH,WindSpeedGustMPH,Humidity,HourlyPrecipIn,Conditions,Clouds,dailyrainin,SoftwareType,DateUTC
2013-06-02 00:01:00,53.0,41.0,-100.00,SE,144,2.0,3.0,63,0.00,,,-99.99,,2013-06-02 07:01:00,
2013-06-02 00:11:00,54.0,42.0,-100.00,SE,124,3.0,4.0,65,0.00,,,-99.99,,2013-06-02 07:11:00,
2013-06-02 00:21:00,54.0,42.0,-100.00,SE,124,3.0,4.0,65,0.00,,,-99.99,,2013-06-02 07:21:00,
2013-06-02 00:31:00,54.0,42.0,-100.00,SE,124,3.0,4.0,65,0.00,,,-99.99,,2013-06-02 07:31:00,
2013-06-02 00:42:00,56.0,40.0,-100.00,SSE,148,2.0,3.0,54,0.00,,,-99.99,,2013-06-02 07:42:00,
2013-06-02 00:52:00,58.0,40.0,-100.00,SSE,164,2.0,3.0,50,0.00,,,-99.99,,2013-06-02 07:52:00,
2013-06-02 01:01:00,58.0,40.0,-100.00,SSE,164,2.0,3.0,50,0.00,,,-99.99,,2013-06-02 08:01:00,
2013-06-02 01:11:00,56.0,42.0,-100.00,WSW,247,2.0,2.0,58,0.00,,,-99.99,,2013-06-02 08:11:00,
2013-06-02 01:41:00,54.0,44.0,-100.00,South,182,2.0,2.0,68,0.00,,,-99.99,,2013-06-02 08:41:00,
2013-06-02 01:52:00,53.0,41.0,-100.00,SSW,200,1.0,2.0,64,0.00,,,-99.99,,2013-06-02 08:52:00,
2013-06-02 02:01:00,53.0,41.0,-100.00,SSW,200,1.0,2.0,64,0.00,,,-99.99,,2013-06-02 09:01:00,
2013-06-02 02:11:00,52.0,43.0,-100.00,SW,232,1.0,2.0,71,0.00,,,-99.99,,2013-06-02 09:11:00,
2013-06-02 02:21:00,52.0,43.0,-100.00,WNW,299,1.0,1.0,70,0.00,,,-99.99,,2013-06-02 09:21:00,
2013-06-02 02:33:00,52.0,43.0,-100.00,WNW,299,1.0,1.0,70,0.00,,,-99.99,,2013-06-02 09:33:00,
2013-06-02 02:42:00,55.0,42.0,-100.00,SSE,158,3.0,3.0,61,0.00,,,-99.99,,2013-06-02 09:42:00,
2013-06-02 02:53:00,55.0,43.0,-100.00,SSE,162,3.0,4.0,65,0.00,,,-99.99,,2013-06-02 09:53:00,
2013-06-02 03:02:00,55.0,43.0,-100.00,SSE,162,3.0,4.0,65,0.00,,,-99.99,,2013-06-02 10:02:00,
2013-06-02 03:12:00,55.0,43.0,-100.00,SSE,157,2.0,2.0,62,0.00,,,-99.99,,2013-06-02 10:12:00,
2013-06-02 03:22:00,54.0,42.0,-100.00,NE,40,3.0,3.0,65,0.00,,,-99.99,,2013-06-02 10:22:00,
2013-06-02 03:32:00,54.0,42.0,-100.00,NE,40,3.0,3.0,65,0.00,,,-99.99,,2013-06-02 10:32:00,
2013-06-02 03:42:00,51.0,42.0,-100.00,SE,130,2.0,2.0,70,0.00,,,-99.99,,2013-06-02 10:42:00,
2013-06-02 03:52:00,51.0,42.0,-100.00,SE,130,2.0,2.0,70,0.00,,,-99.99,,2013-06-02 10:52:00,
2013-06-02 04:02:00,51.0,42.0,-100.00,SE,130,2.0,2.0,70,0.00,,,-99.99,,2013-06-02 11:02:00,
2013-06-02 04:11:00,50.0,42.0,-100.00,NNE,30,1.0,2.0,73,0.00,,,-99.99,,2013-06-02 11:11:00,
2013-06-02 04:21:00,49.0,42.0,-100.00,SSE,157,1.0,2.0,74,0.00,,,-99.99,,2013-06-02 11:21:00,
2013-06-02 04:32:00,49.0,42.0,-100.00,SSE,157,1.0,2.0,74,0.00,,,-99.99,,2013-06-02 11:32:00,
2013-06-02 04:42:00,48.0,43.0,-100.00,South,191,4.0,4.0,81,0.00,,,-99.99,,2013-06-02 11:42:00,
2013-06-02 04:52:00,48.0,43.0,-100.00,South,191,4.0,4.0,81,0.00,,,-99.99,,2013-06-02 11:52:00,
2013-06-02 05:01:00,48.0,43.0,-100.00,South,191,4.0,4.0,81,0.00,,,-99.99,,2013-06-02 12:01:00,
2013-06-02 05:11:00,49.0,43.0,-100.00,South,184,2.0,3.0,79,0.00,,,-99.99,,2013-06-02 12:11:00,
2013-06-02 05:21:00,50.0,43.0,-100.00,South,175,4.0,5.0,78,0.00,,,-99.99,,2013-06-02 12:21:00,
2013-06-02 05:31:00,50.0,43.0,-100.00,South,175,4.0,5.0,78,0.00,,,-99.99,,2013-06-02 12:31:00,
2013-06-02 05:42:00,49.0,44.0,-100.00,SSW,192,4.0,4.0,81,0.00,,,-99.99,,2013-06-02 12:42:00,
2013-06-02 05:52:00,48.0,44.0,-100.00,NW,315,0.0,1.0,86,0.00,,,-99.99,,2013-06-02 12:52:00,
2013-06-02 06:01:00,48.0,44.0,-100.00,NW,315,0.0,1.0,86,0.00,,,-99.99,,2013-06-02 13:01:00,
2013-06-02 06:11:00,49.0,44.0,-100.00,SSE,157,0.0,0.0,81,0.00,,,-99.99,,2013-06-02 13:11:00,
2013-06-02 06:21:00,49.0,45.0,-100.00,South,171,0.0,1.0,86,0.00,,,-99.99,,2013-06-02 13:21:00,
2013-06-02 06:32:00,49.0,45.0,-100.00,South,171,0.0,1.0,86,0.00,,,-99.99,,2013-06-02 13:32:00,
2013-06-02 06:41:00,49.0,45.0,-100.00,ENE,68,2.0,3.0,86,0.00,,,-99.99,,2013-06-02 13:41:00,
2013-06-02 06:52:00,51.0,46.0,-100.00,ENE,78,0.0,0.0,83,0.00,,,-99.99,,2013-06-02 13:52:00,
2013-06-02 07:01:00,51.0,46.0,-100.00,ENE,78,0.0,0.0,83,0.00,,,-99.99,,2013-06-02 14:01:00,
2013-06-02 07:11:00,53.0,46.0,-100.00,East,82,0.0,0.0,79,0.00,,,-99.99,,2013-06-02 14:11:00,
2013-06-02 07:21:00,53.0,46.0,-100.00,East,82,0.0,0.0,79,0.00,,,-99.99,,2013-06-02 14:21:00,
2013-06-02 07:32:00,53.0,46.0,-100.00,East,82,0.0,0.0,79,0.00,,,-99.99,,2013-06-02 14:32:00,
2013-06-02 07:41:00,54.0,47.0,-100.00,East,99,0.0,0.0,80,0.00,,,-99.99,,2013-06-02 14:41:00,
2013-06-02 07:52:00,57.0,48.0,-100.00,ENE,76,1.0,2.0,73,0.00,,,-99.99,,2013-06-02 14:52:00,
2013-06-02 08:01:00,57.0,48.0,-100.00,ENE,76,1.0,2.0,73,0.00,,,-99.99,,2013-06-02 15:01:00,
2013-06-02 08:11:00,55.0,49.0,-100.00,WNW,292,1.0,2.0,79,0.00,,,-99.99,,2013-06-02 15:11:00,
2013-06-02 08:21:00,55.0,48.0,-100.00,NW,318,2.0,3.0,76,0.00,,,-99.99,,2013-06-02 15:21:00,
2013-06-02 08:32:00,55.0,48.0,-100.00,NW,318,2.0,3.0,76,0.00,,,-99.99,,2013-06-02 15:32:00,
2013-06-02 08:42:00,56.0,48.0,-100.00,West,270,3.0,5.0,73,0.00,,,-99.99,,2013-06-02 15:42:00,
2013-06-02 08:53:00,56.0,49.0,-100.00,West,275,4.0,5.0,76,0.00,,,-99.99,,2013-06-02 15:53:00,
2013-06-02 09:03:00,56.0,49.0,-100.00,West,275,4.0,5.0,76,0.00,,,-99.99,,2013-06-02 16:03:00,
2013-06-02 09:13:00,56.0,49.0,-100.00,WSW,244,4.0,5.0,79,0.00,,,-99.99,,2013-06-02 16:13:00,
2013-06-02 09:23:00,57.0,49.0,-100.00,WSW,251,3.0,4.0,75,0.00,,,-99.99,,2013-06-02 16:23:00,
2013-06-02 09:33:00,57.0,49.0,-100.00,WSW,251,3.0,4.0,75,0.00,,,-99.99,,2013-06-02 16:33:00,
2013-06-02 09:42:00,58.0,50.0,-100.00,WNW,292,4.0,5.0,74,0.00,,,-99.99,,2013-06-02 16:42:00,
2013-06-02 09:52:00,58.0,49.0,-100.00,NW,312,2.0,4.0,71,0.00,,,-99.99,,2013-06-02 16:52:00,
2013-06-02 10:02:00,58.0,49.0,-100.00,NW,312,2.0,4.0,71,0.00,,,-99.99,,2013-06-02 17:02:00,
2013-06-02 10:12:00,59.0,49.0,-100.00,NNW,335,5.0,7.0,69,0.00,,,-99.99,,2013-06-02 17:12:00,
2013-06-02 10:22:00,58.0,50.0,-100.00,North,349,6.0,8.0,74,0.00,,,-99.99,,2013-06-02 17:22:00,
2013-06-02 10:32:00,58.0,50.0,-100.00,North,349,6.0,8.0,74,0.00,,,-99.99,,2013-06-02 17:32:00,
2013-06-02 10:42:00,58.0,48.0,-100.00,WNW,301,11.0,15.0,69,0.00,,,-99.99,,2013-06-02 17:42:00,
2013-06-02 10:52:00,59.0,48.0,-100.00,NW,320,11.0,17.0,67,0.00,,,-99.99,,2013-06-02 17:52:00,
2013-06-02 11:01:00,59.0,48.0,-100.00,NW,320,11.0,17.0,67,0.00,,,-99.99,,2013-06-02 18:01:00,
2013-06-02 11:11:00,58.0,48.0,-100.00,NW,309,13.0,15.0,68,0.00,,,-99.99,,2013-06-02 18:11:00,
2013-06-02 11:21:00,58.0,46.0,-100.00,NW,312,15.0,20.0,66,0.00,,,-99.99,,2013-06-02 18:21:00,
2013-06-02 11:32:00,58.0,46.0,-100.00,NW,312,15.0,20.0,66,0.00,,,-99.99,,2013-06-02 18:32:00,
2013-06-02 11:42:00,56.0,47.0,-100.00,NW,311,13.0,18.0,72,0.20,,,-99.99,,2013-06-02 18:42:00,
2013-06-02 11:52:00,55.0,48.0,-100.00,NW,308,8.0,10.0,78,0.08,,,-99.99,,2013-06-02 18:52:00,
2013-06-02 12:01:00,55.0,48.0,-100.00,NW,308,8.0,10.0,78,0.08,,,-99.99,,2013-06-02 19:01:00,
2013-06-02 12:11:00,54.0,47.0,-100.00,NNW,339,8.0,11.0,77,0.35,,,-99.99,,2013-06-02 19:11:00,
2013-06-02 12:21:00,55.0,48.0,-100.00,NW,319,4.0,4.0,77,0.00,,,-99.99,,2013-06-02 19:21:00,
2013-06-02 12:31:00,55.0,48.0,-100.00,NW,319,4.0,4.0,77,0.00,,,-99.99,,2013-06-02 19:31:00,
2013-06-02 12:42:00,58.0,48.0,-100.00,NW,313,6.0,7.0,70,0.00,,,-99.99,,2013-06-02 19:42:00,
2013-06-02 12:52:00,58.0,48.0,-100.00,NW,313,6.0,7.0,70,0.00,,,-99.99,,2013-06-02 19:52:00,
2013-06-02 13:02:00,58.0,48.0,-100.00,NW,313,6.0,7.0,70,0.00,,,-99.99,,2013-06-02 20:02:00,
2013-06-02 13:11:00,60.0,49.0,-100.00,NW,308,13.0,17.0,66,0.00,,,-99.99,,2013-06-02 20:11:00,
2013-06-02 13:21:00,61.0,48.0,-100.00,NW,308,9.0,11.0,63,0.00,,,-99.99,,2013-06-02 20:21:00,
2013-06-02 13:32:00,61.0,48.0,-100.00,NW,308,9.0,11.0,63,0.00,,,-99.99,,2013-06-02 20:32:00,
2013-06-02 13:42:00,62.0,46.0,-100.00,WNW,284,5.0,11.0,57,0.00,,,-99.99,,2013-06-02 20:42:00,
2013-06-02 13:52:00,62.0,44.0,-100.00,West,277,16.0,19.0,53,0.00,,,-99.99,,2013-06-02 20:52:00,
2013-06-02 14:01:00,62.0,44.0,-100.00,West,277,16.0,19.0,53,0.00,,,-99.99,,2013-06-02 21:01:00,
2013-06-02 14:11:00,62.0,44.0,-100.00,West,277,10.0,14.0,52,0.00,,,-99.99,,2013-06-02 21:11:00,
2013-06-02 14:21:00,62.0,44.0,-100.00,West,277,10.0,14.0,52,0.00,,,-99.99,,2013-06-02 21:21:00,
2013-06-02 14:33:00,62.0,44.0,-100.00,West,277,10.0,14.0,52,0.00,,,-99.99,,2013-06-02 21:33:00,
2013-06-02 14:42:00,61.0,44.0,-100.00,West,277,8.0,12.0,53,0.00,,,-99.99,,2013-06-02 21:42:00,
2013-06-02 14:53:00,63.0,45.0,-100.00,West,280,8.0,11.0,52,0.00,,,-99.99,,2013-06-02 21:53:00,
2013-06-02 15:03:00,63.0,45.0,-100.00,West,280,8.0,11.0,52,0.00,,,-99.99,,2013-06-02 22:03:00,
2013-06-02 15:12:00,61.0,45.0,-100.00,NW,308,12.0,16.0,54,0.00,,,-99.99,,2013-06-02 22:12:00,
2013-06-02 15:23:00,61.0,44.0,-100.00,WNW,288,10.0,13.0,53,0.00,,,-99.99,,2013-06-02 22:23:00,
2013-06-02 15:33:00,61.0,44.0,-100.00,WNW,288,10.0,13.0,53,0.00,,,-99.99,,2013-06-02 22:33:00,
2013-06-02 15:42:00,62.0,45.0,-100.00,WNW,291,12.0,15.0,53,0.00,,,-99.99,,2013-06-02 22:42:00,
2013-06-02 15:52:00,61.0,41.0,-100.00,NW,305,12.0,16.0,47,0.00,,,-99.99,,2013-06-02 22:52:00,
2013-06-02 16:02:00,61.0,41.0,-100.00,NW,305,12.0,16.0,47,0.00,,,-99.99,,2013-06-02 23:02:00,
2013-06-02 16:12:00,61.0,46.0,-100.00,NW,318,16.0,22.0,56,0.00,,,-99.99,,2013-06-02 23:12:00,
2013-06-02 16:22:00,62.0,44.0,-100.00,West,274,11.0,16.0,52,0.00,,,-99.99,,2013-06-02 23:22:00,
2013-06-02 16:32:00,62.0,44.0,-100.00,West,274,11.0,16.0,52,0.00,,,-99.99,,2013-06-02 23:32:00,
2013-06-02 16:42:00,60.0,44.0,-100.00,WNW,292,15.0,19.0,56,0.00,,,-99.99,,2013-06-02 23:42:00,
2013-06-02 16:52:00,58.0,42.0,-100.00,WNW,291,19.0,25.0,56,0.00,,,-99.99,,2013-06-02 23:52:00,
2013-06-02 17:01:00,58.0,42.0,-100.00,WNW,291,19.0,25.0,56,0.00,,,-99.99,,2013-06-03 00:01:00,
2013-06-02 17:11:00,56.0,42.0,-100.00,NW,304,17.0,23.0,59,0.00,,,-99.99,,2013-06-03 00:11:00,
2013-06-02 17:21:00,58.0,45.0,-100.00,West,275,13.0,16.0,62,0.00,,,-99.99,,2013-06-03 00:21:00,
2013-06-02 17:32:00,58.0,45.0,-100.00,West,275,13.0,16.0,62,0.00,,,-99.99,,2013-06-03 00:32:00,
2013-06-02 17:42:00,58.0,44.0,-100.00,WNW,284,12.0,16.0,60,0.00,,,-99.99,,2013-06-03 00:42:00,
2013-06-02 17:52:00,57.0,44.0,-100.00,WSW,258,12.0,16.0,61,0.00,,,-99.99,,2013-06-03 00:52:00,
2013-06-02 18:01:00,57.0,44.0,-100.00,WSW,258,12.0,16.0,61,0.00,,,-99.99,,2013-06-03 01:01:00,
2013-06-02 18:11:00,56.0,45.0,-100.00,WNW,301,14.0,17.0,64,0.00,,,-99.99,,2013-06-03 01:11:00,
2013-06-02 18:21:00,57.0,46.0,-100.00,NW,304,10.0,12.0,67,0.00,,,-99.99,,2013-06-03 01:21:00,
2013-06-02 18:32:00,57.0,46.0,-100.00,NW,304,10.0,12.0,67,0.00,,,-99.99,,2013-06-03 01:32:00,
2013-06-02 18:42:00,57.0,46.0,-100.00,NW,304,10.0,12.0,67,0.00,,,-99.99,,2013-06-03 01:42:00,
2013-06-02 18:52:00,58.0,46.0,-100.00,WNW,298,7.0,11.0,65,0.00,,,-99.99,,2013-06-03 01:52:00,
2013-06-02 19:02:00,58.0,46.0,-100.00,WNW,298,7.0,11.0,65,0.00,,,-99.99,,2013-06-03 02:02:00,
2013-06-02 19:12:00,57.0,46.0,-100.00,WNW,301,9.0,11.0,66,0.00,,,-99.99,,2013-06-03 02:12:00,
2013-06-02 19:22:00,58.0,46.0,-100.00,WNW,296,5.0,7.0,63,0.00,,,-99.99,,2013-06-03 02:22:00,
2013-06-02 19:32:00,58.0,46.0,-100.00,WNW,296,5.0,7.0,63,0.00,,,-99.99,,2013-06-03 02:32:00,
2013-06-02 19:42:00,57.0,46.0,-100.00,WNW,294,6.0,8.0,66,0.00,,,-99.99,,2013-06-03 02:42:00,
2013-06-02 19:52:00,58.0,46.0,-100.00,WNW,289,4.0,5.0,66,0.00,,,-99.99,,2013-06-03 02:52:00,
2013-06-02 20:02:00,58.0,46.0,-100.00,WNW,289,4.0,5.0,66,0.00,,,-99.99,,2013-06-03 03:02:00,
2013-06-02 20:12:00,58.0,45.0,-100.00,WSW,246,5.0,6.0,64,0.00,,,-99.99,,2013-06-03 03:12:00,
2013-06-02 20:22:00,57.0,44.0,-100.00,WSW,254,6.0,8.0,61,0.00,,,-99.99,,2013-06-03 03:22:00,
2013-06-02 20:33:00,57.0,44.0,-100.00,WSW,254,6.0,8.0,61,0.00,,,-99.99,,2013-06-03 03:33:00,
2013-06-02 20:43:00,56.0,44.0,-100.00,West,264,4.0,5.0,64,0.00,,,-99.99,,2013-06-03 03:43:00,
2013-06-02 20:53:00,55.0,43.0,-100.00,WSW,258,7.0,8.0,63,0.00,,,-99.99,,2013-06-03 03:53:00,
2013-06-02 21:03:00,55.0,43.0,-100.00,WSW,258,7.0,8.0,63,0.00,,,-99.99,,2013-06-03 04:03:00,
2013-06-02 21:12:00,54.0,42.0,-100.00,West,275,5.0,6.0,64,0.00,,,-99.99,,2013-06-03 04:12:00,
2013-06-02 21:23:00,54.0,43.0,-100.00,West,263,7.0,9.0,65,0.00,,,-99.99,,2013-06-03 04:23:00,
2013-06-02 21:33:00,54.0,43.0,-100.00,West,263,7.0,9.0,65,0.00,,,-99.99,,2013-06-03 04:33:00,
2013-06-02 21:42:00,54.0,42.0,-100.00,West,277,8.0,12.0,64,0.00,,,-99.99,,2013-06-03 04:42:00,
2013-06-02 21:53:00,54.0,42.0,-100.00,West,281,6.0,7.0,64,0.00,,,-99.99,,2013-06-03 04:53:00,
2013-06-02 22:02:00,54.0,42.0,-100.00,West,281,6.0,7.0,64,0.00,,,-99.99,,2013-06-03 05:02:00,
2013-06-02 22:12:00,53.0,42.0,-100.00,West,270,8.0,11.0,66,0.00,,,-99.99,,2013-06-03 05:12:00,
2013-06-02 22:22:00,53.0,42.0,-100.00,NW,323,3.0,4.0,68,0.00,,,-99.99,,2013-06-03 05:22:00,
2013-06-02 22:32:00,53.0,42.0,-100.00,NW,323,3.0,4.0,68,0.00,,,-99.99,,2013-06-03 05:32:00,
2013-06-02 22:42:00,53.0,43.0,-100.00,NW,315,2.0,4.0,68,0.00,,,-99.99,,2013-06-03 05:42:00,
2013-06-02 22:52:00,54.0,43.0,-100.00,West,264,2.0,4.0,67,0.00,,,-99.99,,2013-06-03 05:52:00,
2013-06-02 23:02:00,54.0,43.0,-100.00,West,264,2.0,4.0,67,0.00,,,-99.99,,2013-06-03 06:02:00,
2013-06-02 23:12:00,53.0,43.0,-100.00,WNW,295,2.0,2.0,68,0.00,,,-99.99,,2013-06-03 06:12:00,
2013-06-02 23:22:00,54.0,43.0,-100.00,West,274,2.0,2.0,67,0.00,,,-99.99,,2013-06-03 06:22:00,
2013-06-02 23:32:00,54.0,43.0,-100.00,West,274,2.0,2.0,67,0.00,,,-99.99,,2013-06-03 06:32:00,
2013-06-02 23:42:00,53.0,43.0,-100.00,SSW,202,4.0,5.0,69,0.00,,,-99.99,,2013-06-03 06:42:00,
2013-06-02 23:52:00,52.0,43.0,-100.00,SSW,209,3.0,4.0,70,0.00,,,-99.99,,2013-06-03 06:52:00,